首页
METAR-TAF:

METAR-TAF

机场 :

哈尔滨太平国际机场

哈尔滨, 中华人民共和国

纬度: 45-45N, 经度: 126-46E, 海拔: 143米

当前天气观测

该预报发布于19分钟前的18:00 UTC
风速4节,风向
温度 -16°C
湿度 92%
气压 1018 hPa
能見度: 3000
轻雾

METAR: ZYHB 091800Z 18002MPS 3000 BR NSC M16/M17 Q1018 BECMG TL1930 2000

时间: 02:19 (18:19 UTC)

预报

该预报发布于3小时和13分钟前的15:06 UTC
预报有效从09日的 18点(UTC)到 10日的 18点(UTC)
风速6节,风向南转西南
能見度: 3000
散云层高于2000英尺
轻雾
短暂存在
从 09日的 18点(UTC)到 09日的 24点(UTC)
能見度: 1200
轻雾, 霾

TAF: ZYHB 091506Z 0918/1018 20003MPS 3000 BR SCT020 TXM07/06Z TNM16/23Z TEMPO 0918/0924 1200 BR HZ

超过4000个机场的气象观测和天气预报(METAR&TAF报告)。

可查询的气象台以黄色和红色小点在地图上表示。

将鼠标移到小点上方,可查看气象台名称。

然后点击查看天气观测和预报。

如需切换地图:点击带黑十字的绿色按钮放大地图;点击带横线的绿色按钮缩小地图;或者点击绿色箭头查看邻近地区的地图。


METAR-TAF: